Time;durP1;ratioP1;P1;durP2;ratioP2;P2;SDS_P1;SDS_P2;PMS_P1;PMS_P2;Temp;Humidity;BMP_temperature;BMP_pressure;BME280_temperature;BME280_humidity;BME280_pressure;Samples;Min_cycle;Max_cycle;Signal;HPM_P1;HPM_P2
2021/10/16 00:01:00;;;;;;;0.60;0.43;;;21.60;51.60;;;;;;6267910;28;20128;-67
2021/10/16 00:04:00;;;;;;;0.40;0.40;;;21.60;51.60;;;;;;6269219;28;20025;-67
2021/10/16 00:07:02;;;;;;;0.85;0.38;;;21.60;51.60;;;;;;6270264;28;20029;-67
2021/10/16 00:10:03;;;;;;;0.60;0.50;;;21.60;51.60;;;;;;6268514;28;20241;-67
2021/10/16 00:13:04;;;;;;;0.73;0.40;;;21.60;51.60;;;;;;6269041;28;20390;-68
2021/10/16 00:16:05;;;;;;;0.68;0.40;;;21.60;51.60;;;;;;6267424;28;20032;-67
2021/10/16 00:19:07;;;;;;;1.38;0.50;;;21.60;51.60;;;;;;6274337;28;20111;-67
2021/10/16 00:22:08;;;;;;;0.65;0.47;;;21.60;51.60;;;;;;6286445;28;20017;-68
2021/10/16 00:25:09;;;;;;;0.50;0.38;;;21.60;51.60;;;;;;6272103;28;20515;-68
2021/10/16 00:28:09;;;;;;;0.98;0.50;;;21.60;51.60;;;;;;6292968;28;20028;-67
2021/10/16 00:31:10;;;;;;;0.95;0.50;;;21.60;51.60;;;;;;6285876;28;20025;-67
2021/10/16 00:34:10;;;;;;;0.75;0.40;;;21.60;51.60;;;;;;6267132;28;20215;-68
2021/10/16 00:37:11;;;;;;;1.30;0.45;;;21.60;51.60;;;;;;6268912;28;20134;-67
2021/10/16 00:40:11;;;;;;;1.20;0.40;;;21.60;51.70;;;;;;6267034;28;20107;-67
2021/10/16 00:43:12;;;;;;;1.23;0.50;;;21.60;51.70;;;;;;6277128;28;20029;-67
2021/10/16 00:46:12;;;;;;;0.88;0.50;;;21.60;51.70;;;;;;6266606;28;20031;-67
2021/10/16 00:49:13;;;;;;;0.40;0.32;;;21.60;51.70;;;;;;6268214;28;20033;-68
2021/10/16 00:52:14;;;;;;;0.43;0.30;;;21.60;51.70;;;;;;6268153;28;20112;-67
2021/10/16 00:55:17;;;;;;;1.55;0.50;;;21.60;51.70;;;;;;6268607;28;20375;-68
2021/10/16 00:58:18;;;;;;;0.98;0.60;;;21.60;51.70;;;;;;6267909;28;20033;-67
2021/10/16 01:01:18;;;;;;;0.30;0.28;;;21.60;51.70;;;;;;6266393;28;20055;-67
2021/10/16 01:04:19;;;;;;;0.88;0.70;;;21.60;51.70;;;;;;6267919;28;20060;-68
2021/10/16 01:07:19;;;;;;;0.45;0.40;;;21.60;51.70;;;;;;6267668;28;20444;-67
2021/10/16 01:10:20;;;;;;;0.52;0.30;;;21.60;51.70;;;;;;6267413;28;20072;-67
2021/10/16 01:13:21;;;;;;;1.10;0.43;;;21.60;51.70;;;;;;6283389;28;20013;-67
2021/10/16 01:16:21;;;;;;;1.30;0.60;;;21.60;51.70;;;;;;6270255;28;20024;-67
2021/10/16 01:19:22;;;;;;;1.25;0.52;;;21.60;51.70;;;;;;6265628;28;20056;-68
2021/10/16 01:22:24;;;;;;;0.80;0.47;;;21.60;51.70;;;;;;6273830;28;20048;-67
2021/10/16 01:25:24;;;;;;;1.50;0.50;;;21.50;51.60;;;;;;6292525;28;20033;-67
2021/10/16 01:28:25;;;;;;;0.63;0.30;;;21.60;51.70;;;;;;6292237;28;20025;-68
2021/10/16 01:31:27;;;;;;;0.95;0.40;;;21.60;51.70;;;;;;6283190;28;20029;-68
2021/10/16 01:34:29;;;;;;;0.77;0.47;;;21.60;51.70;;;;;;6267674;28;20017;-67
2021/10/16 01:37:29;;;;;;;0.60;0.40;;;21.60;51.70;;;;;;6267572;28;20028;-67
2021/10/16 01:40:30;;;;;;;1.10;0.50;;;21.50;51.70;;;;;;6267235;28;20017;-67
2021/10/16 01:43:31;;;;;;;0.95;0.50;;;21.60;51.70;;;;;;6292260;28;20028;-67
2021/10/16 01:46:31;;;;;;;0.80;0.40;;;21.60;51.70;;;;;;6283672;28;20025;-67
2021/10/16 01:49:32;;;;;;;1.13;0.45;;;21.60;52.50;;;;;;6265891;28;20374;-67
2021/10/16 01:52:33;;;;;;;1.27;0.47;;;21.60;51.70;;;;;;6273307;28;20028;-67
2021/10/16 01:55:33;;;;;;;0.82;0.35;;;21.60;51.80;;;;;;6267379;28;20112;-67
2021/10/16 01:58:34;;;;;;;0.80;0.50;;;21.60;51.70;;;;;;6289743;28;20029;-67
2021/10/16 02:01:35;;;;;;;0.60;0.40;;;21.60;51.80;;;;;;6286725;28;20056;-68
2021/10/16 02:04:35;;;;;;;0.50;0.40;;;21.60;51.70;;;;;;6267021;28;20029;-67
2021/10/16 02:07:36;;;;;;;0.32;0.32;;;21.60;51.70;;;;;;6266919;28;20036;-68
2021/10/16 02:10:37;;;;;;;0.47;0.30;;;21.60;51.80;;;;;;6266544;28;20374;-67
2021/10/16 02:13:38;;;;;;;2.20;0.63;;;21.60;51.70;;;;;;6288370;28;20028;-67
2021/10/16 02:16:38;;;;;;;0.52;0.40;;;21.60;51.80;;;;;;6292075;28;20025;-68
2021/10/16 02:19:39;;;;;;;0.57;0.40;;;21.60;51.80;;;;;;6291895;28;20020;-67
2021/10/16 02:22:39;;;;;;;0.70;0.38;;;21.60;51.80;;;;;;6280266;28;20024;-67
2021/10/16 02:25:40;;;;;;;0.98;0.30;;;21.60;51.70;;;;;;6270580;28;20053;-67
2021/10/16 02:28:41;;;;;;;0.98;0.47;;;21.60;51.80;;;;;;6291557;28;20520;-67
2021/10/16 02:31:42;;;;;;;2.92;0.75;;;21.60;51.80;;;;;;6283765;28;20032;-67
2021/10/16 02:34:42;;;;;;;2.30;0.60;;;21.60;51.80;;;;;;6271429;28;20021;-68
2021/10/16 02:37:43;;;;;;;0.73;0.50;;;21.60;51.80;;;;;;6290152;28;20024;-68
2021/10/16 02:40:44;;;;;;;0.80;0.50;;;21.60;51.80;;;;;;6294665;28;20036;-68
2021/10/16 02:43:45;;;;;;;0.80;0.30;;;21.60;51.80;;;;;;6271167;28;20129;-67
2021/10/16 02:46:45;;;;;;;0.43;0.30;;;21.60;51.80;;;;;;6280322;28;20037;-67
2021/10/16 02:49:46;;;;;;;0.70;0.30;;;21.60;51.80;;;;;;6293921;28;20448;-68
2021/10/16 02:52:46;;;;;;;0.47;0.40;;;21.50;51.80;;;;;;6275448;28;20477;-68
2021/10/16 02:55:47;;;;;;;0.50;0.40;;;21.60;51.80;;;;;;6270551;28;20033;-67
2021/10/16 02:58:47;;;;;;;0.73;0.40;;;21.50;51.70;;;;;;6270599;28;20040;-68
2021/10/16 03:01:48;;;;;;;0.98;0.30;;;21.50;51.70;;;;;;6269208;28;20021;-67
2021/10/16 03:04:49;;;;;;;1.08;0.52;;;21.60;51.80;;;;;;6270638;28;20025;-68
2021/10/16 03:07:50;;;;;;;0.73;0.40;;;21.50;51.80;;;;;;6270302;28;20024;-68
2021/10/16 03:10:50;;;;;;;0.52;0.30;;;21.60;51.80;;;;;;6270314;28;20482;-67
2021/10/16 03:13:51;;;;;;;1.00;0.40;;;21.50;51.80;;;;;;6270200;28;20036;-67
2021/10/16 03:16:51;;;;;;;1.50;0.45;;;21.50;51.80;;;;;;6270660;28;20022;-67
2021/10/16 03:19:52;;;;;;;1.35;0.50;;;21.50;51.80;;;;;;6269931;28;20018;-67
2021/10/16 03:22:52;;;;;;;0.50;0.40;;;21.50;51.80;;;;;;6277197;28;20028;-68
2021/10/16 03:25:53;;;;;;;0.82;0.47;;;21.50;51.80;;;;;;6288522;28;20033;-67
2021/10/16 03:28:54;;;;;;;0.50;0.30;;;21.50;51.80;;;;;;6269860;28;20083;-68
2021/10/16 03:31:54;;;;;;;0.40;0.30;;;21.50;51.80;;;;;;6269516;28;20059;-67
2021/10/16 03:34:55;;;;;;;0.68;0.30;;;21.50;51.80;;;;;;6268696;28;20025;-67
2021/10/16 03:37:55;;;;;;;0.40;0.30;;;21.50;51.80;;;;;;6288728;28;20031;-67
2021/10/16 03:40:59;;;;;;;0.98;0.40;;;21.50;51.80;;;;;;6294671;28;20020;-67
2021/10/16 03:44:00;;;;;;;1.30;0.40;;;21.50;51.90;;;;;;6294501;28;20036;-68
2021/10/16 03:47:00;;;;;;;0.45;0.32;;;21.50;51.80;;;;;;6281825;28;20029;-67
2021/10/16 03:50:01;;;;;;;0.57;0.40;;;21.50;51.80;;;;;;6268385;28;20021;-68
2021/10/16 03:53:02;;;;;;;0.40;0.32;;;21.50;51.80;;;;;;6287354;28;20024;-67
2021/10/16 03:56:04;;;;;;;0.93;0.40;;;21.50;51.80;;;;;;6292761;28;20039;-67
2021/10/16 04:03:06;;;;;;;;;;;21.50;51.80;;;;;;6277461;28;20021;-67
2021/10/16 04:06:07;;;;;;;0.95;0.40;;;21.50;51.80;;;;;;6269105;28;20413;-67
2021/10/16 04:09:07;;;;;;;1.05;0.40;;;21.50;51.80;;;;;;6268360;28;20076;-67
2021/10/16 04:12:08;;;;;;;0.75;0.40;;;21.50;51.80;;;;;;6267464;28;20036;-67
2021/10/16 04:15:08;;;;;;;0.40;0.30;;;21.50;51.90;;;;;;6268544;28;20043;-68
2021/10/16 04:18:09;;;;;;;1.20;0.40;;;21.50;51.90;;;;;;6285026;28;20092;-67
2021/10/16 04:21:10;;;;;;;0.32;0.20;;;21.50;51.80;;;;;;6293491;28;20086;-67
2021/10/16 04:24:10;;;;;;;0.45;0.30;;;21.50;51.90;;;;;;6269396;28;20485;-67
2021/10/16 04:27:11;;;;;;;0.88;0.43;;;21.50;51.80;;;;;;6266734;28;20051;-67
2021/10/16 04:30:11;;;;;;;0.32;0.32;;;21.50;51.80;;;;;;6268498;28;20017;-67
2021/10/16 04:33:12;;;;;;;0.50;0.20;;;21.50;51.90;;;;;;6292435;28;20469;-68
2021/10/16 04:36:13;;;;;;;1.27;0.32;;;21.50;51.80;;;;;;6293903;28;20524;-67
2021/10/16 04:39:13;;;;;;;0.80;0.40;;;21.50;51.90;;;;;;6289328;28;20440;-66
2021/10/16 04:42:15;;;;;;;1.05;0.50;;;21.50;51.90;;;;;;6276725;28;20029;-66
2021/10/16 04:45:17;;;;;;;0.63;0.40;;;21.50;51.90;;;;;;6266064;28;20471;-66
2021/10/16 04:48:17;;;;;;;0.32;0.30;;;21.50;51.90;;;;;;6287699;28;20435;-67
2021/10/16 04:51:18;;;;;;;0.30;0.30;;;21.50;51.90;;;;;;6290193;28;20040;-66
2021/10/16 04:54:19;;;;;;;1.20;0.50;;;21.50;51.90;;;;;;6290187;28;20025;-66
2021/10/16 04:57:19;;;;;;;0.80;0.40;;;21.50;51.90;;;;;;6289929;28;20448;-66
2021/10/16 05:00:20;;;;;;;1.17;0.50;;;21.50;51.90;;;;;;6288978;28;20112;-67
2021/10/16 05:03:21;;;;;;;0.63;0.40;;;21.50;51.90;;;;;;6268272;28;20033;-67
2021/10/16 05:06:21;;;;;;;0.40;0.30;;;21.50;51.90;;;;;;6266418;28;20028;-67
2021/10/16 05:09:22;;;;;;;1.02;0.40;;;21.50;51.90;;;;;;6289979;28;20052;-66
2021/10/16 05:12:22;;;;;;;0.73;0.40;;;21.50;52.00;;;;;;6281424;28;20086;-66
2021/10/16 05:15:24;;;;;;;0.63;0.30;;;21.50;51.90;;;;;;6254342;28;20128;-66
2021/10/16 05:18:26;;;;;;;0.43;0.30;;;21.50;51.90;;;;;;6287651;28;20424;-66
2021/10/16 05:21:26;;;;;;;0.28;0.28;;;21.50;51.90;;;;;;6290373;28;20417;-66
2021/10/16 05:24:27;;;;;;;0.60;0.30;;;21.50;51.90;;;;;;6264005;28;20040;-66
2021/10/16 05:27:28;;;;;;;0.98;0.30;;;21.50;51.90;;;;;;6270324;28;20481;-67
2021/10/16 05:30:28;;;;;;;0.50;0.30;;;21.50;51.90;;;;;;6265513;28;20044;-66
2021/10/16 05:33:30;;;;;;;0.25;0.20;;;21.50;51.90;;;;;;6290155;28;20530;-66
2021/10/16 05:36:30;;;;;;;0.40;0.30;;;21.50;51.90;;;;;;6289455;28;20086;-66
2021/10/16 05:39:31;;;;;;;0.70;0.50;;;21.50;51.90;;;;;;6289636;28;20029;-66
2021/10/16 05:42:31;;;;;;;0.55;0.30;;;21.50;51.90;;;;;;6289659;28;20033;-67
2021/10/16 05:45:32;;;;;;;0.80;0.45;;;21.50;52.00;;;;;;6290026;28;20332;-66
2021/10/16 05:48:32;;;;;;;0.50;0.25;;;21.50;51.90;;;;;;6265199;28;20032;-66
2021/10/16 05:51:33;;;;;;;1.00;0.50;;;21.50;51.90;;;;;;6271464;28;20531;-66
2021/10/16 05:54:34;;;;;;;0.60;0.40;;;21.50;51.90;;;;;;6290526;28;20021;-66
2021/10/16 05:57:34;;;;;;;0.50;0.38;;;21.50;51.90;;;;;;6275315;28;20025;-66
2021/10/16 06:00:36;;;;;;;0.50;0.30;;;21.50;51.90;;;;;;6264671;28;20099;-67
2021/10/16 06:03:37;;;;;;;0.63;0.38;;;21.50;51.90;;;;;;6288573;28;20033;-67
2021/10/16 06:06:37;;;;;;;0.40;0.30;;;21.50;51.90;;;;;;6289049;28;20021;-66
2021/10/16 06:09:38;;;;;;;0.73;0.40;;;21.50;51.90;;;;;;6269114;28;20427;-66
2021/10/16 06:12:39;;;;;;;0.30;0.30;;;21.50;51.90;;;;;;6282745;28;20039;-66
2021/10/16 06:15:40;;;;;;;0.60;0.43;;;21.50;51.90;;;;;;6261303;28;20109;-66
2021/10/16 06:18:42;;;;;;;1.27;0.47;;;21.50;51.90;;;;;;6284918;28;20077;-67
2021/10/16 06:21:43;;;;;;;0.95;0.40;;;21.50;51.90;;;;;;6289304;28;20436;-67
2021/10/16 06:24:44;;;;;;;0.88;0.40;;;21.50;52.00;;;;;;6270348;28;20024;-66
2021/10/16 06:27:44;;;;;;;0.80;0.30;;;21.50;52.00;;;;;;6273415;28;20033;-66
2021/10/16 06:30:45;;;;;;;0.57;0.40;;;21.50;51.90;;;;;;6272321;28;20153;-66
2021/10/16 06:33:45;;;;;;;0.52;0.30;;;21.50;51.90;;;;;;6293951;28;20394;-66
2021/10/16 06:36:46;;;;;;;0.30;0.28;;;21.50;51.90;;;;;;6293543;28;20023;-67
2021/10/16 06:39:46;;;;;;;0.90;0.32;;;21.50;52.00;;;;;;6293965;28;20384;-67
2021/10/16 06:42:48;;;;;;;0.47;0.40;;;21.50;52.00;;;;;;6274853;28;20037;-67
2021/10/16 06:45:48;;;;;;;0.30;0.30;;;21.50;52.00;;;;;;6270467;28;20287;-66
2021/10/16 06:48:49;;;;;;;0.40;0.30;;;21.50;52.00;;;;;;6293648;28;20039;-66
2021/10/16 06:51:49;;;;;;;0.82;0.50;;;21.50;52.00;;;;;;6284218;28;20104;-67
2021/10/16 06:54:50;;;;;;;1.95;0.50;;;21.50;51.90;;;;;;6268601;28;20087;-66
2021/10/16 06:57:50;;;;;;;0.68;0.40;;;21.50;52.00;;;;;;6285184;28;20278;-67
2021/10/16 07:00:51;;;;;;;0.20;0.13;;;21.50;52.00;;;;;;6293311;28;20073;-67
2021/10/16 07:03:51;;;;;;;0.80;0.40;;;21.50;52.00;;;;;;6268570;28;20110;-66
2021/10/16 07:06:52;;;;;;;0.65;0.38;;;21.50;52.00;;;;;;6292224;28;20024;-66
2021/10/16 07:09:52;;;;;;;0.57;0.40;;;21.50;52.10;;;;;;6270496;28;20049;-66
2021/10/16 07:12:53;;;;;;;0.20;0.20;;;21.50;52.00;;;;;;6282209;28;20060;-66
2021/10/16 07:15:54;;;;;;;0.88;0.43;;;21.50;52.00;;;;;;6273797;28;20029;-66
2021/10/16 07:18:54;;;;;;;0.47;0.30;;;21.50;52.00;;;;;;6290583;28;20021;-66
2021/10/16 07:21:56;;;;;;;0.65;0.50;;;21.50;52.10;;;;;;6292900;28;20103;-67
2021/10/16 07:24:56;;;;;;;0.57;0.30;;;21.50;52.00;;;;;;6293137;28;20032;-66
2021/10/16 07:27:57;;;;;;;0.57;0.40;;;21.50;52.10;;;;;;6294200;28;20672;-66
2021/10/16 07:30:58;;;;;;;0.73;0.40;;;21.50;52.00;;;;;;6288429;28;20067;-66
2021/10/16 07:34:00;;;;;;;0.68;0.45;;;21.50;52.00;;;;;;6268253;28;20170;-67
2021/10/16 07:37:00;;;;;;;0.70;0.40;;;21.50;52.10;;;;;;6280791;28;20124;-67
2021/10/16 07:40:03;;;;;;;1.60;0.40;;;21.50;52.00;;;;;;6292363;28;20598;-67
2021/10/16 07:43:04;;;;;;;0.40;0.38;;;21.50;52.10;;;;;;6291659;28;20060;-66
2021/10/16 07:46:04;;;;;;;0.85;0.45;;;21.50;52.00;;;;;;6288564;28;20102;-66
2021/10/16 07:49:05;;;;;;;0.63;0.40;;;21.50;52.10;;;;;;6267577;28;20029;-67
2021/10/16 07:52:05;;;;;;;0.82;0.40;;;21.50;52.00;;;;;;6277442;28;20028;-66
2021/10/16 07:55:06;;;;;;;0.55;0.30;;;21.50;52.00;;;;;;6291873;28;20097;-66
2021/10/16 07:58:07;;;;;;;0.50;0.40;;;21.50;52.70;;;;;;6276367;28;20087;-67
2021/10/16 08:01:08;;;;;;;0.40;0.30;;;21.50;52.10;;;;;;6268775;28;20033;-66
2021/10/16 08:04:11;;;;;;;0.65;0.30;;;21.50;52.00;;;;;;6291959;28;20030;-66
2021/10/16 08:07:11;;;;;;;0.80;0.40;;;21.50;52.00;;;;;;6282162;28;20559;-66
2021/10/16 08:10:12;;;;;;;1.58;0.40;;;21.50;52.10;;;;;;6265491;28;20040;-66
2021/10/16 08:13:13;;;;;;;0.40;0.22;;;21.50;52.80;;;;;;6284642;28;20384;-66
2021/10/16 08:16:14;;;;;;;0.45;0.40;;;21.50;52.10;;;;;;6282792;28;20031;-66
2021/10/16 08:19:15;;;;;;;0.65;0.40;;;21.50;52.10;;;;;;6291113;28;20531;-68
2021/10/16 08:22:15;;;;;;;0.40;0.40;;;21.50;52.00;;;;;;6291324;28;20060;-66
2021/10/16 08:25:16;;;;;;;0.85;0.40;;;21.50;52.10;;;;;;6286082;28;20209;-66
2021/10/16 08:28:17;;;;;;;1.17;0.32;;;21.50;52.10;;;;;;6290217;28;20028;-66
2021/10/16 08:31:17;;;;;;;1.63;0.40;;;21.50;52.10;;;;;;6282086;28;20036;-66
2021/10/16 08:34:19;;;;;;;0.68;0.50;;;21.50;52.10;;;;;;6266413;28;20037;-66
2021/10/16 08:37:19;;;;;;;0.45;0.30;;;21.50;52.10;;;;;;6281325;28;20028;-66
2021/10/16 08:40:20;;;;;;;0.98;0.50;;;21.50;52.10;;;;;;6291337;28;20100;-67
2021/10/16 08:43:20;;;;;;;0.93;0.20;;;21.50;52.10;;;;;;6267435;28;20494;-66
2021/10/16 08:46:23;;;;;;;0.35;0.30;;;21.50;52.10;;;;;;6271839;28;20031;-67
2021/10/16 08:49:29;;;;;;;0.43;0.32;;;21.50;52.10;;;;;;6291335;28;20067;-66
2021/10/16 08:52:30;;;;;;;0.95;0.50;;;21.50;52.00;;;;;;6290653;28;20435;-66
2021/10/16 08:55:31;;;;;;;0.32;0.30;;;21.50;52.10;;;;;;6290612;28;20020;-66
2021/10/16 08:58:34;;;;;;;0.75;0.40;;;21.50;52.10;;;;;;6290289;28;20774;-66
2021/10/16 09:01:59;;;;;;;1.63;0.43;;;21.50;52.10;;;;;;6287232;28;20502;-68
2021/10/16 09:05:13;;;;;;;0.75;0.45;;;21.50;52.10;;;;;;6266377;28;20367;-67
2021/10/16 09:08:31;;;;;;;0.60;0.50;;;21.50;52.10;;;;;;6281155;28;20086;-68
2021/10/16 09:11:37;;;;;;;0.40;0.30;;;21.50;52.10;;;;;;6289368;28;20115;-66
2021/10/16 09:14:45;;;;;;;0.35;0.30;;;21.50;52.10;;;;;;6265091;28;20110;-67
2021/10/16 09:18:01;;;;;;;0.65;0.35;;;21.50;52.10;;;;;;6266074;28;20063;-69
2021/10/16 09:21:13;;;;;;;0.80;0.50;;;21.50;52.00;;;;;;6265936;28;20051;-69
2021/10/16 09:24:25;;;;;;;0.70;0.40;;;21.50;52.10;;;;;;6289065;28;20033;-69
2021/10/16 09:27:28;;;;;;;0.52;0.40;;;21.50;52.10;;;;;;6268153;28;20025;-68
2021/10/16 09:30:30;;;;;;;1.00;0.60;;;21.50;52.00;;;;;;6267387;28;20036;-67
2021/10/16 09:33:47;;;;;;;1.00;0.60;;;21.50;52.10;;;;;;6290912;28;20028;-67
2021/10/16 09:36:47;;;;;;;0.95;0.60;;;21.50;52.10;;;;;;6278782;28;20025;-68
2021/10/16 09:39:48;;;;;;;1.00;0.50;;;21.50;52.10;;;;;;6267221;28;20025;-69
2021/10/16 09:42:49;;;;;;;1.55;0.57;;;21.50;52.10;;;;;;6252907;28;20064;-66
2021/10/16 09:46:12;;;;;;;1.15;0.60;;;21.50;52.10;;;;;;6255358;28;20036;-67
2021/10/16 09:49:13;;;;;;;2.63;0.55;;;21.50;52.10;;;;;;6271474;28;20026;-67
2021/10/16 09:52:17;;;;;;;2.30;0.50;;;21.50;52.10;;;;;;6270042;28;20028;-67
2021/10/16 09:55:18;;;;;;;0.77;0.30;;;21.50;52.10;;;;;;6270597;28;20033;-68
2021/10/16 09:58:24;;;;;;;2.00;0.50;;;21.50;52.10;;;;;;6271784;28;20259;-69
2021/10/16 10:01:25;;;;;;;1.65;0.73;;;21.50;52.10;;;;;;6274273;28;20107;-67
2021/10/16 10:04:26;;;;;;;0.50;0.50;;;21.50;52.10;;;;;;6296276;28;20464;-66
2021/10/16 10:07:27;;;;;;;4.93;0.57;;;21.50;52.10;;;;;;6280671;28;20024;-69
2021/10/16 10:10:28;;;;;;;3.28;0.50;;;21.50;52.10;;;;;;6296038;28;20064;-69
2021/10/16 10:13:29;;;;;;;2.50;0.80;;;21.50;52.10;;;;;;6295049;28;20043;-69
2021/10/16 10:16:32;;;;;;;0.90;0.52;;;21.50;52.70;;;;;;6274286;28;20036;-67
2021/10/16 10:19:40;;;;;;;1.25;0.60;;;21.50;52.10;;;;;;6295941;28;20078;-68
2021/10/16 10:22:44;;;;;;;0.98;0.50;;;21.50;52.10;;;;;;6294762;28;20105;-68
2021/10/16 10:25:44;;;;;;;1.15;0.65;;;21.50;52.10;;;;;;6293769;28;20028;-67
2021/10/16 10:29:18;;;;;;;0.68;0.47;;;21.50;52.10;;;;;;6295578;28;20494;-67
2021/10/16 10:32:28;;;;;;;1.58;0.50;;;21.50;52.10;;;;;;6246888;28;20099;-67
2021/10/16 10:35:29;;;;;;;0.70;0.43;;;21.50;52.10;;;;;;6246677;28;20085;-69
2021/10/16 10:38:31;;;;;;;1.48;0.82;;;21.50;52.10;;;;;;6295423;28;20406;-67
2021/10/16 10:41:35;;;;;;;0.90;0.60;;;21.50;52.10;;;;;;6294783;28;20024;-68
2021/10/16 10:44:43;;;;;;;1.15;0.70;;;21.50;52.10;;;;;;6295222;28;20024;-67
2021/10/16 10:47:58;;;;;;;0.88;0.50;;;21.50;52.10;;;;;;6296261;28;20021;-68
2021/10/16 10:50:59;;;;;;;1.02;0.50;;;21.50;52.10;;;;;;6292990;28;20033;-68
2021/10/16 10:54:21;;;;;;;0.98;0.45;;;21.50;52.10;;;;;;6271194;28;20117;-68
2021/10/16 10:57:45;;;;;;;0.60;0.47;;;21.50;52.10;;;;;;6270910;28;20013;-69
2021/10/16 11:00:46;;;;;;;1.98;0.77;;;21.50;52.10;;;;;;6269266;28;20478;-69
2021/10/16 11:03:48;;;;;;;0.70;0.50;;;21.50;52.10;;;;;;6268464;28;20020;-68
2021/10/16 11:07:04;;;;;;;0.80;0.50;;;21.50;52.10;;;;;;6273304;28;20040;-68
2021/10/16 11:10:05;;;;;;;1.95;0.50;;;21.50;52.10;;;;;;6293513;28;20536;-69
2021/10/16 11:13:18;;;;;;;1.33;0.60;;;21.50;52.10;;;;;;6293273;28;20508;-69
2021/10/16 11:16:18;;;;;;;0.95;0.63;;;21.50;52.10;;;;;;6251406;28;20496;-69
2021/10/16 11:19:19;;;;;;;0.68;0.50;;;21.50;52.10;;;;;;6282077;28;20018;-68
2021/10/16 11:22:22;;;;;;;2.03;0.70;;;21.50;52.10;;;;;;6262306;28;20032;-68
2021/10/16 11:25:31;;;;;;;2.80;0.85;;;21.50;52.10;;;;;;6272439;28;20021;-70
2021/10/16 11:28:34;;;;;;;8.57;0.90;;;21.50;52.10;;;;;;6267371;28;20021;-68
2021/10/16 11:31:35;;;;;;;0.55;0.47;;;21.60;51.80;;;;;;6274853;28;20029;-69
2021/10/16 11:34:35;;;;;;;2.30;0.68;;;21.60;51.80;;;;;;6286954;28;20029;-69
2021/10/16 11:37:44;;;;;;;1.23;0.52;;;21.60;52.00;;;;;;6266246;28;20447;-68
2021/10/16 11:40:44;;;;;;;5.10;0.50;;;21.60;51.80;;;;;;6262042;28;20029;-68
2021/10/16 11:43:45;;;;;;;0.60;0.50;;;21.60;51.80;;;;;;6279616;28;20355;-68
2021/10/16 11:47:01;;;;;;;2.28;0.57;;;21.60;52.00;;;;;;6281140;28;20868;-69
2021/10/16 11:50:10;;;;;;;1.27;0.70;;;21.60;52.00;;;;;;6289993;28;20296;-68
2021/10/16 11:53:20;;;;;;;1.15;0.45;;;21.60;52.10;;;;;;6286988;28;20489;-69
2021/10/16 11:56:21;;;;;;;0.95;0.63;;;21.60;52.10;;;;;;6293230;28;20016;-68
2021/10/16 11:59:22;;;;;;;0.55;0.50;;;21.60;52.10;;;;;;6287072;28;20087;-69
2021/10/16 12:02:33;;;;;;;12.85;1.17;;;21.60;52.10;;;;;;6277466;28;20050;-68
2021/10/16 12:05:35;;;;;;;21.65;1.80;;;21.60;52.30;;;;;;6290787;28;20028;-68
2021/10/16 12:08:47;;;;;;;2.83;0.90;;;21.60;52.20;;;;;;6272506;28;20096;-68
2021/10/16 12:12:00;;;;;;;4.35;0.98;;;21.70;51.90;;;;;;6262099;28;20043;-68
2021/10/16 12:15:00;;;;;;;8.07;1.50;;;21.70;52.00;;;;;;6264143;28;20036;-68
2021/10/16 12:18:03;;;;;;;6.05;0.85;;;21.70;52.10;;;;;;6271298;28;20025;-68
2021/10/16 12:21:05;;;;;;;8.30;1.05;;;21.70;52.10;;;;;;6289444;28;20025;-68
2021/10/16 12:24:05;;;;;;;2.58;0.73;;;21.70;52.00;;;;;;6270284;28;20033;-68
2021/10/16 12:27:09;;;;;;;5.10;0.93;;;21.70;51.90;;;;;;6288461;28;20437;-68
2021/10/16 12:30:10;;;;;;;3.15;0.82;;;21.70;52.00;;;;;;6274056;28;20021;-68
2021/10/16 12:33:11;;;;;;;1.63;0.80;;;21.70;51.80;;;;;;6288659;28;20135;-68
2021/10/16 12:36:11;;;;;;;6.60;1.13;;;21.70;51.90;;;;;;6280280;28;20035;-67
2021/10/16 12:39:12;;;;;;;5.95;0.80;;;21.70;51.80;;;;;;6259846;28;20017;-68
2021/10/16 12:42:18;;;;;;;4.22;1.30;;;21.80;51.90;;;;;;6266464;28;20021;-70
2021/10/16 12:45:19;;;;;;;1.55;0.90;;;21.80;52.10;;;;;;6266494;28;20025;-67
2021/10/16 12:48:30;;;;;;;3.13;0.75;;;21.70;52.10;;;;;;6255652;28;20021;-67
2021/10/16 12:51:39;;;;;;;2.83;1.20;;;21.70;52.10;;;;;;6289086;28;20055;-68
2021/10/16 12:54:40;;;;;;;3.15;1.08;;;21.70;51.40;;;;;;6292332;28;20028;-68
2021/10/16 12:58:05;;;;;;;6.03;1.08;;;21.60;50.70;;;;;;6277123;28;20023;-68
2021/10/16 13:01:08;;;;;;;8.73;1.70;;;21.60;50.70;;;;;;6246346;28;20025;-68
2021/10/16 13:04:08;;;;;;;4.13;1.20;;;21.60;50.90;;;;;;6268023;28;20040;-68
2021/10/16 13:07:09;;;;;;;4.78;1.55;;;21.60;50.90;;;;;;6274370;28;20478;-68
2021/10/16 13:10:10;;;;;;;5.25;1.20;;;21.60;50.90;;;;;;6291118;28;20075;-68
2021/10/16 13:13:10;;;;;;;6.68;1.45;;;21.60;51.10;;;;;;6263522;28;20032;-68
2021/10/16 13:16:12;;;;;;;3.15;1.35;;;21.60;51.40;;;;;;6279802;28;20036;-68
2021/10/16 13:19:12;;;;;;;4.65;1.33;;;21.60;51.20;;;;;;6266746;28;20112;-68
2021/10/16 13:22:13;;;;;;;2.00;1.00;;;21.60;51.30;;;;;;6283816;28;20029;-68
2021/10/16 13:25:15;;;;;;;4.45;1.63;;;21.60;51.50;;;;;;6286107;28;20501;-67
2021/10/16 13:28:15;;;;;;;2.60;0.98;;;21.60;51.40;;;;;;6284335;28;20054;-68
2021/10/16 13:31:16;;;;;;;3.30;1.25;;;21.60;51.50;;;;;;6282493;28;20037;-68
2021/10/16 13:34:17;;;;;;;4.47;1.30;;;21.60;51.50;;;;;;6267065;28;20075;-68
2021/10/16 13:37:18;;;;;;;2.63;0.98;;;21.60;51.60;;;;;;6280697;28;20020;-68
2021/10/16 13:40:18;;;;;;;4.20;1.35;;;21.60;51.60;;;;;;6288908;28;20455;-68
2021/10/16 13:43:20;;;;;;;4.00;0.98;;;21.60;51.70;;;;;;6288112;28;20024;-68
2021/10/16 13:46:20;;;;;;;2.92;1.20;;;21.60;51.60;;;;;;6282466;28;20076;-68
2021/10/16 13:49:22;;;;;;;2.88;0.93;;;21.60;51.70;;;;;;6278236;28;20020;-68
2021/10/16 13:52:22;;;;;;;1.90;0.90;;;21.60;51.70;;;;;;6284479;28;20021;-68
2021/10/16 13:55:26;;;;;;;2.33;1.10;;;21.60;51.80;;;;;;6292448;28;20047;-68
2021/10/16 13:58:26;;;;;;;3.80;1.42;;;21.60;51.70;;;;;;6270737;28;20024;-68
2021/10/16 14:01:27;;;;;;;3.45;1.38;;;21.60;51.80;;;;;;6271955;28;20022;-68
2021/10/16 14:04:28;;;;;;;1.50;0.90;;;21.60;51.80;;;;;;6273210;28;20025;-68
2021/10/16 14:07:29;;;;;;;2.50;1.17;;;21.60;51.80;;;;;;6289364;28;20444;-68
2021/10/16 14:10:29;;;;;;;2.10;1.15;;;21.60;51.80;;;;;;6290799;28;20301;-68
2021/10/16 14:13:30;;;;;;;1.92;1.10;;;21.60;51.70;;;;;;6267319;28;20025;-68
2021/10/16 14:16:30;;;;;;;2.08;1.00;;;21.50;51.70;;;;;;6280742;28;20021;-68
2021/10/16 14:19:31;;;;;;;3.08;1.20;;;21.50;51.70;;;;;;6291108;28;20028;-68
2021/10/16 14:22:31;;;;;;;3.38;1.42;;;21.50;51.80;;;;;;6289605;28;20029;-68
2021/10/16 14:25:32;;;;;;;1.35;0.80;;;21.50;52.50;;;;;;6284432;28;20473;-68
2021/10/16 14:28:35;;;;;;;2.55;1.23;;;21.50;51.80;;;;;;6288471;28;20023;-68
2021/10/16 14:31:35;;;;;;;2.25;1.10;;;21.60;51.80;;;;;;6288327;28;20055;-68
2021/10/16 14:34:36;;;;;;;1.98;1.02;;;21.60;52.00;;;;;;6295781;28;20521;-68
2021/10/16 14:37:36;;;;;;;2.13;1.30;;;21.60;51.90;;;;;;6285123;28;20025;-68
2021/10/16 14:40:37;;;;;;;1.60;0.95;;;21.50;52.60;;;;;;6277179;28;20016;-68
2021/10/16 14:43:37;;;;;;;3.13;1.23;;;21.60;52.00;;;;;;6270855;28;20056;-68
2021/10/16 14:46:38;;;;;;;1.83;0.90;;;21.50;51.90;;;;;;6273438;28;20047;-68
2021/10/16 14:49:38;;;;;;;1.50;0.95;;;21.60;52.00;;;;;;6270546;28;20029;-68
2021/10/16 14:52:40;;;;;;;1.92;1.10;;;21.60;52.00;;;;;;6277026;28;20029;-68
2021/10/16 14:55:40;;;;;;;0.90;0.80;;;21.50;51.90;;;;;;6272631;28;20017;-68
2021/10/16 14:58:41;;;;;;;1.23;0.90;;;21.50;51.90;;;;;;6270568;28;20025;-68
2021/10/16 15:01:41;;;;;;;1.65;1.10;;;21.60;52.10;;;;;;6276557;28;20047;-68
2021/10/16 15:04:42;;;;;;;1.25;0.90;;;21.50;52.00;;;;;;6288422;28;20033;-68
2021/10/16 15:07:43;;;;;;;1.88;0.93;;;21.50;52.00;;;;;;6267724;28;20402;-68
2021/10/16 15:10:44;;;;;;;1.90;1.10;;;21.50;51.90;;;;;;6268756;28;20045;-68
2021/10/16 15:13:47;;;;;;;1.77;1.00;;;21.60;52.10;;;;;;6271568;28;20075;-68
2021/10/16 15:16:47;;;;;;;1.50;1.00;;;21.50;52.00;;;;;;6250058;28;20017;-68
2021/10/16 15:19:48;;;;;;;1.33;0.75;;;21.50;52.00;;;;;;6293897;28;20047;-68
2021/10/16 15:22:49;;;;;;;1.92;0.98;;;21.60;52.00;;;;;;6282104;28;20371;-68
2021/10/16 15:25:50;;;;;;;1.60;0.90;;;21.60;52.10;;;;;;6272205;28;20056;-68
2021/10/16 15:28:52;;;;;;;1.67;1.00;;;21.50;52.00;;;;;;6267237;28;20031;-68
2021/10/16 15:31:53;;;;;;;1.63;0.90;;;21.60;52.00;;;;;;6273431;28;20025;-68
2021/10/16 15:34:56;;;;;;;2.45;1.05;;;21.50;52.00;;;;;;6294868;28;20020;-68
2021/10/16 15:37:57;;;;;;;1.35;1.00;;;21.60;52.80;;;;;;6284878;28;20028;-68
2021/10/16 15:40:58;;;;;;;0.93;0.63;;;21.60;52.10;;;;;;6284684;28;20437;-68
2021/10/16 15:43:59;;;;;;;3.58;1.10;;;21.60;52.10;;;;;;6277735;28;20698;-68
2021/10/16 15:46:59;;;;;;;1.88;0.90;;;21.50;52.10;;;;;;6269198;28;20086;-68
2021/10/16 15:50:01;;;;;;;1.60;1.10;;;21.50;52.00;;;;;;6268133;28;20013;-68
2021/10/16 15:53:02;;;;;;;1.08;0.80;;;21.50;52.00;;;;;;6272698;28;20390;-68